createdAt,value
2022-11-23T00:01:18.541Z,90.35
2022-11-23T00:04:21.002Z,90.69
2022-11-23T00:07:23.521Z,90.41
2022-11-23T00:10:27.419Z,91.32
2022-11-23T00:13:29.971Z,90.77
2022-11-23T00:16:32.464Z,91.13
2022-11-23T00:19:34.966Z,90.98
2022-11-23T00:22:37.493Z,91.53
2022-11-23T00:25:44.712Z,90.54
2022-11-23T00:28:47.412Z,90.45
2022-11-23T00:31:49.895Z,90.65
2022-11-23T00:34:52.444Z,90.80
2022-11-23T00:37:54.962Z,90.75
2022-11-23T00:41:03.846Z,91.37
2022-11-23T00:44:06.311Z,90.55
2022-11-23T00:47:09.517Z,91.16
2022-11-23T00:50:12.024Z,90.99
2022-11-23T00:53:14.427Z,90.52
2022-11-23T00:56:18.559Z,91.66
2022-11-23T00:59:21.144Z,90.79
2022-11-23T01:02:23.720Z,91.10
2022-11-23T01:05:26.199Z,90.76
2022-11-23T01:08:28.659Z,91.69
2022-11-23T01:11:32.949Z,90.88
2022-11-23T01:14:35.892Z,90.80
2022-11-23T01:17:40.484Z,90.14
2022-11-23T01:20:44.295Z,89.96
2022-11-23T01:23:46.738Z,90.72
2022-11-23T01:26:52.737Z,90.07
2022-11-23T01:29:55.783Z,91.22
2022-11-23T01:32:58.228Z,90.37
2022-11-23T01:36:00.633Z,90.41
2022-11-23T01:39:04.498Z,90.62
2022-11-23T01:42:08.742Z,90.48
2022-11-23T01:45:37.275Z,90.75
2022-11-23T01:48:44.806Z,90.88
2022-11-23T01:51:50.889Z,90.43
2022-11-23T01:54:56.226Z,90.19
2022-11-23T01:58:01.188Z,90.57
2022-11-23T02:01:03.914Z,90.73
2022-11-23T02:04:09.600Z,90.42
2022-11-23T02:07:12.170Z,89.79
2022-11-23T02:10:15.088Z,91.17
2022-11-23T02:13:18.963Z,91.02
2022-11-23T02:16:21.813Z,91.28
2022-11-23T02:19:34.691Z,90.69
2022-11-23T02:22:49.684Z,90.78
2022-11-23T02:26:00.082Z,91.14
2022-11-23T02:29:07.828Z,90.30
2022-11-23T02:32:10.282Z,90.65
2022-11-23T02:35:13.311Z,90.04
2022-11-23T02:38:19.403Z,90.33
2022-11-23T02:41:23.140Z,90.32
2022-11-23T02:44:34.067Z,90.69
2022-11-23T02:47:36.614Z,91.24
2022-11-23T02:50:39.097Z,91.03
2022-11-23T02:53:42.500Z,90.29
2022-11-23T02:56:47.526Z,90.74
2022-11-23T02:59:50.401Z,91.08
2022-11-23T03:02:52.960Z,90.85
2022-11-23T03:05:55.955Z,91.13
2022-11-23T03:08:59.456Z,90.38
2022-11-23T03:12:03.828Z,90.34
2022-11-23T03:15:07.132Z,90.99
2022-11-23T03:18:09.860Z,90.85
2022-11-23T03:21:12.599Z,90.05
2022-11-23T03:24:16.243Z,90.51
2022-11-23T03:27:21.258Z,91.39
2022-11-23T03:30:24.189Z,91.52
2022-11-23T03:33:26.840Z,91.60
2022-11-23T03:36:29.325Z,93.00
2022-11-23T03:39:32.277Z,92.44
2022-11-23T03:42:36.356Z,91.23
2022-11-23T03:45:38.956Z,91.95
2022-11-23T03:48:41.481Z,92.37
2022-11-23T03:51:44.117Z,92.35
2022-11-23T03:54:47.092Z,91.70
2022-11-23T03:57:51.555Z,91.59
2022-11-23T04:00:55.471Z,92.08
2022-11-23T04:03:58.256Z,92.16
2022-11-23T04:07:12.369Z,92.01
2022-11-23T04:10:20.700Z,92.03
2022-11-23T04:13:50.788Z,92.24
2022-11-23T04:16:54.503Z,91.85
2022-11-23T04:19:57.216Z,91.81
2022-11-23T04:23:00.046Z,91.22
2022-11-23T04:26:05.143Z,91.45
2022-11-23T04:29:10.057Z,91.05
2022-11-23T04:32:16.356Z,91.63
2022-11-23T04:35:20.829Z,91.64
2022-11-23T04:38:25.165Z,91.03
2022-11-23T04:41:28.714Z,91.02
2022-11-23T04:44:32.590Z,91.41
2022-11-23T04:47:39.114Z,90.81
2022-11-23T04:50:47.131Z,91.40
2022-11-23T04:53:55.907Z,92.35
2022-11-23T04:56:59.745Z,92.34
2022-11-23T05:00:03.886Z,92.76
2022-11-23T05:03:10.419Z,92.10
2022-11-23T05:06:15.635Z,91.56
2022-11-23T05:09:18.496Z,91.96
2022-11-23T05:12:33.243Z,92.07
2022-11-23T05:15:38.118Z,92.13
2022-11-23T05:18:41.252Z,92.03
2022-11-23T05:21:44.125Z,92.83
2022-11-23T05:24:48.459Z,92.89
2022-11-23T05:27:54.618Z,92.88
2022-11-23T05:30:58.528Z,92.11
2022-11-23T05:34:01.260Z,93.14
2022-11-23T05:37:13.514Z,93.14
2022-11-23T05:40:27.916Z,93.36
2022-11-23T05:43:33.871Z,92.82
2022-11-23T05:46:37.967Z,91.80
2022-11-23T05:49:40.692Z,93.12
2022-11-23T05:52:43.387Z,93.21
2022-11-23T05:55:46.286Z,92.90
2022-11-23T05:58:49.224Z,92.93
2022-11-23T06:01:53.182Z,91.22
2022-11-23T06:05:04.225Z,92.23
2022-11-23T06:08:15.354Z,92.03
2022-11-23T06:11:18.027Z,91.47
2022-11-23T06:14:20.508Z,91.12
2022-11-23T06:17:24.994Z,91.36
2022-11-23T06:20:31.380Z,91.98
2022-11-23T06:23:38.376Z,91.93
2022-11-23T06:26:41.944Z,92.54
2022-11-23T06:29:44.631Z,91.67
2022-11-23T06:32:49.610Z,92.29
2022-11-23T06:35:54.602Z,91.67
2022-11-23T06:38:59.065Z,91.97
2022-11-23T06:42:16.767Z,92.11
2022-11-23T06:45:24.347Z,91.84
2022-11-23T06:48:31.078Z,91.89
2022-11-23T06:51:35.582Z,91.18
2022-11-23T06:54:38.520Z,90.66
2022-11-23T06:57:41.673Z,90.32
2022-11-23T07:00:45.732Z,89.72
2022-11-23T07:03:51.377Z,90.84
2022-11-23T07:07:03.984Z,90.43
2022-11-23T07:10:17.654Z,90.52
2022-11-23T07:13:22.721Z,91.17
2022-11-23T07:16:25.432Z,91.10
2022-11-23T07:19:29.694Z,90.80
2022-11-23T07:22:34.883Z,90.89
2022-11-23T07:25:38.782Z,90.49
2022-11-23T07:28:41.266Z,89.05
2022-11-23T07:31:43.903Z,87.77
2022-11-23T07:34:47.820Z,86.26
2022-11-23T07:37:51.496Z,86.64
2022-11-23T07:40:54.036Z,85.39
2022-11-23T07:44:11.397Z,82.01
2022-11-23T07:47:13.864Z,78.66
2022-11-23T07:50:17.726Z,77.34
2022-11-23T07:53:21.038Z,77.88
2022-11-23T07:56:23.906Z,79.68
2022-11-23T07:59:26.707Z,79.10
2022-11-23T08:02:32.690Z,81.73
2022-11-23T08:05:36.737Z,83.07
2022-11-23T08:08:39.780Z,83.31
2022-11-23T08:11:42.581Z,84.31
2022-11-23T08:14:45.072Z,84.14
2022-11-23T08:17:47.616Z,84.34
2022-11-23T08:21:00.534Z,85.31
2022-11-23T08:24:03.292Z,85.66
2022-11-23T08:27:05.725Z,85.24
2022-11-23T08:30:09.282Z,84.61
2022-11-23T08:33:12.581Z,85.54
2022-11-23T08:36:16.824Z,84.63
2022-11-23T08:39:19.516Z,83.58
2022-11-23T08:42:22.261Z,80.25
2022-11-23T08:45:25.161Z,76.72
2022-11-23T08:48:28.096Z,74.14
2022-11-23T08:51:32.190Z,71.81
2022-11-23T08:54:35.389Z,72.75
2022-11-23T08:57:37.890Z,70.59
2022-11-23T09:00:40.312Z,71.12
2022-11-23T09:03:43.565Z,72.61
2022-11-23T09:06:47.442Z,73.40
2022-11-23T09:09:50.036Z,74.05
2022-11-23T09:12:52.520Z,71.39
2022-11-23T09:15:58.062Z,72.32
2022-11-23T09:19:01.204Z,66.94
2022-11-23T09:22:06.540Z,63.99
2022-11-23T09:25:10.396Z,66.44
2022-11-23T09:28:14.839Z,66.44
2022-11-23T09:31:17.539Z,67.26
2022-11-23T09:34:20.631Z,66.81
2022-11-23T09:37:25.438Z,69.53
2022-11-23T09:40:32.129Z,71.82
2022-11-23T09:43:45.009Z,72.50
2022-11-23T09:47:02.300Z,68.99
2022-11-23T09:50:12.858Z,67.01
2022-11-23T09:53:22.206Z,65.84
2022-11-23T09:56:29.968Z,65.22
2022-11-23T09:59:41.948Z,65.58
2022-11-23T10:02:44.599Z,62.65
2022-11-23T10:05:57.699Z,62.38
2022-11-23T10:09:24.763Z,61.16
2022-11-23T10:12:40.380Z,63.61
2022-11-23T10:15:56.920Z,58.81
2022-11-23T10:19:09.255Z,58.54
2022-11-23T10:22:19.611Z,59.55
2022-11-23T10:25:24.770Z,62.79
2022-11-23T10:28:31.587Z,61.36
2022-11-23T10:31:34.116Z,61.23
2022-11-23T10:34:48.942Z,61.43
2022-11-23T10:37:53.664Z,61.85
2022-11-23T10:41:03.321Z,63.95
2022-11-23T10:44:18.852Z,63.15
2022-11-23T10:47:38.691Z,65.71
2022-11-23T10:50:41.216Z,66.04
2022-11-23T10:53:44.335Z,66.24
2022-11-23T10:56:50.215Z,69.84
2022-11-23T10:59:59.395Z,70.97
2022-11-23T11:03:22.689Z,69.46
2022-11-23T11:06:27.836Z,70.33
2022-11-23T11:09:31.800Z,70.11
2022-11-23T11:12:36.008Z,71.43
2022-11-23T11:15:47.247Z,73.14
2022-11-23T11:18:50.479Z,73.04
2022-11-23T11:21:53.200Z,71.98
2022-11-23T11:24:56.171Z,73.93
2022-11-23T11:28:02.518Z,72.64
2022-11-23T11:31:23.551Z,74.76
2022-11-23T11:34:33.028Z,71.84
2022-11-23T11:37:41.912Z,72.58
2022-11-23T11:40:47.428Z,71.74
2022-11-23T11:43:58.379Z,69.43
2022-11-23T11:47:09.074Z,70.10
2022-11-23T11:50:20.504Z,69.52
2022-11-23T11:53:27.901Z,67.60
2022-11-23T11:56:36.354Z,68.89
2022-11-23T11:59:43.740Z,69.59
2022-11-23T12:02:57.322Z,69.86
2022-11-23T12:06:06.969Z,68.07
2022-11-23T12:09:14.649Z,69.77
2022-11-23T12:12:25.117Z,69.27
2022-11-23T12:15:53.091Z,68.17
2022-11-23T12:19:06.854Z,68.86
2022-11-23T12:22:36.663Z,68.33
2022-11-23T12:25:46.787Z,69.54
2022-11-23T12:29:04.524Z,68.68
2022-11-23T12:32:23.297Z,69.31
2022-11-23T12:35:36.975Z,68.91
2022-11-23T12:38:51.523Z,69.61
2022-11-23T12:42:01.477Z,69.90
2022-11-23T12:45:33.242Z,71.99
2022-11-23T12:49:01.279Z,70.95
2022-11-23T12:52:24.265Z,70.68
2022-11-23T12:55:40.048Z,70.81
2022-11-23T12:58:46.425Z,72.17
2022-11-23T13:01:56.500Z,70.57
2022-11-23T13:05:23.779Z,70.66
2022-11-23T13:08:51.695Z,70.27
2022-11-23T13:12:16.898Z,71.50
2022-11-23T13:15:38.830Z,73.27
2022-11-23T13:18:58.915Z,75.57
2022-11-23T13:22:11.279Z,78.05
2022-11-23T13:25:21.153Z,74.85
2022-11-23T13:28:36.960Z,73.10
2022-11-23T13:32:27.305Z,72.51
2022-11-23T13:36:19.820Z,71.52
2022-11-23T13:40:20.148Z,70.83
2022-11-23T13:43:26.268Z,72.97
2022-11-23T13:46:29.157Z,72.39
2022-11-23T13:49:42.516Z,72.27
2022-11-23T13:52:49.997Z,71.81
2022-11-23T13:55:54.573Z,73.88
2022-11-23T13:59:19.541Z,75.19
2022-11-23T14:02:26.578Z,76.62
2022-11-23T14:05:31.635Z,77.50
2022-11-23T14:08:36.841Z,77.75
2022-11-23T14:11:50.704Z,78.24
2022-11-23T14:15:00.788Z,79.17
2022-11-23T14:18:36.618Z,79.47
2022-11-23T14:21:47.655Z,80.20
2022-11-23T14:25:09.065Z,80.64
2022-11-23T14:28:30.833Z,80.96
2022-11-23T14:31:53.034Z,80.21
2022-11-23T14:35:20.042Z,80.55
2022-11-23T14:39:05.965Z,80.27
2022-11-23T14:42:13.845Z,80.82
2022-11-23T14:45:17.137Z,80.73
2022-11-23T14:48:28.788Z,81.61
2022-11-23T14:51:33.038Z,82.16
2022-11-23T14:54:37.475Z,81.37
2022-11-23T14:57:43.067Z,80.48
2022-11-23T15:00:48.101Z,81.08
2022-11-23T15:03:58.554Z,80.87
2022-11-23T15:07:05.232Z,80.42
2022-11-23T15:10:20.081Z,80.82
2022-11-23T15:13:25.010Z,80.86
2022-11-23T15:16:27.777Z,80.44
2022-11-23T15:19:31.650Z,80.84
2022-11-23T15:22:36.902Z,80.62
2022-11-23T15:25:50.837Z,81.14
2022-11-23T15:28:53.927Z,81.07
2022-11-23T15:32:22.559Z,81.20
2022-11-23T15:35:23.055Z,81.95
2022-11-23T15:38:25.833Z,81.52
2022-11-23T15:41:30.340Z,80.69
2022-11-23T15:44:33.244Z,80.75
2022-11-23T15:47:38.158Z,80.32
2022-11-23T15:50:48.963Z,80.64
2022-11-23T15:53:53.377Z,80.49
2022-11-23T15:56:58.609Z,81.31
2022-11-23T16:00:04.562Z,81.49
2022-11-23T16:03:31.970Z,81.00
2022-11-23T16:06:38.274Z,81.04
2022-11-23T16:09:51.051Z,81.21
2022-11-23T16:12:56.438Z,81.37
2022-11-23T16:16:00.396Z,80.88
2022-11-23T16:19:18.782Z,81.21
2022-11-23T16:22:30.923Z,81.42
2022-11-23T16:25:35.284Z,81.88
2022-11-23T16:28:39.679Z,81.89
2022-11-23T16:31:51.802Z,82.44
2022-11-23T16:35:16.456Z,82.58
2022-11-23T16:38:20.654Z,83.20
2022-11-23T16:41:23.211Z,82.86
2022-11-23T16:44:25.685Z,83.37
2022-11-23T16:47:30.027Z,83.75
2022-11-23T16:50:34.332Z,84.00
2022-11-23T16:54:11.320Z,83.38
2022-11-23T16:57:07.471Z,84.78
2022-11-23T17:00:15.825Z,86.30
2022-11-23T17:03:20.175Z,87.36
2022-11-23T17:06:25.778Z,87.60
2022-11-23T17:09:29.812Z,88.41
2022-11-23T17:12:32.446Z,88.98
2022-11-23T17:15:35.140Z,89.13
2022-11-23T17:18:37.701Z,89.15
2022-11-23T17:21:40.120Z,89.76
2022-11-23T17:24:44.336Z,89.42
2022-11-23T17:27:47.230Z,89.34
2022-11-23T17:30:50.797Z,88.83
2022-11-23T17:33:55.980Z,88.61
2022-11-23T17:36:59.952Z,88.60
2022-11-23T17:40:04.692Z,88.70
2022-11-23T17:43:07.531Z,89.48
2022-11-23T17:46:17.121Z,89.16
2022-11-23T17:49:20.146Z,89.65
2022-11-23T17:52:24.182Z,90.14
2022-11-23T17:55:28.252Z,90.00
2022-11-23T17:58:30.876Z,89.86
2022-11-23T18:01:33.485Z,89.24
2022-11-23T18:04:36.673Z,89.51
2022-11-23T18:07:41.473Z,89.53
2022-11-23T18:10:45.566Z,88.90
2022-11-23T18:13:50.401Z,89.19
2022-11-23T18:16:53.070Z,90.04
2022-11-23T18:19:55.861Z,90.18
2022-11-23T18:22:58.546Z,89.88
2022-11-23T18:26:04.741Z,89.40
2022-11-23T18:29:07.715Z,90.19
2022-11-23T18:32:11.006Z,89.72
2022-11-23T18:35:13.553Z,89.73
2022-11-23T18:38:16.392Z,90.00
2022-11-23T18:41:22.661Z,90.03
2022-11-23T18:44:25.530Z,89.73
2022-11-23T18:47:28.179Z,89.99
2022-11-23T18:50:30.662Z,89.77
2022-11-23T18:53:33.276Z,89.62
2022-11-23T18:56:37.450Z,89.36
2022-11-23T19:03:03.734Z,90.00
2022-11-23T19:06:08.181Z,89.78
2022-11-23T19:09:14.246Z,89.95
2022-11-23T19:12:18.330Z,90.24
2022-11-23T19:15:21.813Z,90.39
2022-11-23T19:18:24.575Z,89.92
2022-11-23T19:21:30.171Z,89.75
2022-11-23T19:24:33.198Z,90.51
2022-11-23T19:27:40.366Z,90.24
2022-11-23T19:30:43.267Z,90.81
2022-11-23T19:33:48.779Z,90.50
2022-11-23T19:36:51.461Z,90.70
2022-11-23T19:39:54.160Z,90.33
2022-11-23T19:42:58.319Z,90.56
2022-11-23T19:46:02.841Z,90.79
2022-11-23T19:49:05.799Z,89.98
2022-11-23T19:52:08.849Z,90.47
2022-11-23T19:55:12.027Z,91.07
2022-11-23T19:58:16.614Z,90.78
2022-11-23T20:01:21.029Z,91.03
2022-11-23T20:04:24.647Z,89.05
2022-11-23T20:07:27.261Z,89.24
2022-11-23T20:10:30.159Z,89.36
2022-11-23T20:13:35.578Z,90.28
2022-11-23T20:16:39.002Z,89.62
2022-11-23T20:19:41.836Z,90.55
2022-11-23T20:22:44.984Z,90.51
2022-11-23T20:25:47.868Z,90.43
2022-11-23T20:28:53.347Z,90.72
2022-11-23T20:31:57.162Z,90.76
2022-11-23T20:34:59.878Z,90.63
2022-11-23T20:38:03.315Z,89.60
2022-11-23T20:41:13.995Z,89.21
2022-11-23T20:44:18.967Z,89.55
2022-11-23T20:47:22.339Z,91.02
2022-11-23T20:50:27.047Z,90.61
2022-11-23T20:53:30.240Z,91.24
2022-11-23T20:56:33.711Z,90.97
2022-11-23T20:59:37.937Z,91.18
2022-11-23T21:02:40.809Z,90.57
2022-11-23T21:05:43.686Z,90.24
2022-11-23T21:08:47.670Z,89.92
2022-11-23T21:12:08.617Z,90.26
2022-11-23T21:15:12.465Z,90.51
2022-11-23T21:18:15.425Z,89.61
2022-11-23T21:21:18.023Z,90.29
2022-11-23T21:24:21.417Z,90.80
2022-11-23T21:27:28.099Z,90.87
2022-11-23T21:30:32.285Z,90.56
2022-11-23T21:33:36.217Z,90.57
2022-11-23T21:36:39.699Z,90.54
2022-11-23T21:39:44.595Z,90.73
2022-11-23T21:42:51.574Z,91.04
2022-11-23T21:46:00.119Z,91.15
2022-11-23T21:49:03.234Z,90.15
2022-11-23T21:52:06.221Z,90.64
2022-11-23T21:55:09.479Z,89.81
2022-11-23T21:58:11.920Z,90.21
2022-11-23T22:01:18.145Z,90.33
2022-11-23T22:04:20.714Z,90.47
2022-11-23T22:07:23.167Z,90.36
2022-11-23T22:10:30.109Z,90.02
2022-11-23T22:13:36.697Z,90.44
2022-11-23T22:16:45.598Z,89.91
2022-11-23T22:19:48.528Z,89.89
2022-11-23T22:22:50.948Z,90.07
2022-11-23T22:25:53.363Z,90.05
2022-11-23T22:28:56.774Z,90.22
2022-11-23T22:32:00.634Z,90.59
2022-11-23T22:35:03.107Z,90.32
2022-11-23T22:38:05.540Z,90.02
2022-11-23T22:41:10.029Z,90.65
2022-11-23T22:44:12.536Z,90.40
2022-11-23T22:47:17.380Z,90.45
2022-11-23T22:50:19.959Z,91.29
2022-11-23T22:53:22.560Z,90.63
2022-11-23T22:56:26.016Z,90.12
2022-11-23T22:59:28.468Z,90.09
2022-11-23T23:02:32.711Z,90.84
2022-11-23T23:05:35.599Z,90.58
2022-11-23T23:08:38.368Z,90.57
2022-11-23T23:11:40.894Z,89.86
2022-11-23T23:14:43.342Z,90.79
2022-11-23T23:17:47.145Z,90.24
2022-11-23T23:20:49.594Z,91.39
2022-11-23T23:23:54.484Z,91.37
2022-11-23T23:26:56.959Z,91.05
2022-11-23T23:30:02.125Z,91.74
2022-11-23T23:33:06.062Z,91.64
2022-11-23T23:36:10.793Z,91.19
2022-11-23T23:39:13.609Z,91.19
2022-11-23T23:42:16.033Z,91.75
2022-11-23T23:45:18.432Z,91.32
2022-11-23T23:48:22.560Z,91.92
2022-11-23T23:51:47.575Z,92.20
2022-11-23T23:54:52.711Z,92.52
2022-11-23T23:57:55.167Z,92.18
